Time;durP1;ratioP1;P1;durP2;ratioP2;P2;SDS_P1;SDS_P2;PMS_P1;PMS_P2;Temp;Humidity;BMP_temperature;BMP_pressure;BME280_temperature;BME280_humidity;BME280_pressure;Samples;Min_cycle;Max_cycle;Signal;HPM_P1;HPM_P2
2022/06/29 00:00:18;;;;;;;3.37;3.07;;;20.70;93.60;;;;;;4122984;28;20745;-75
2022/06/29 00:02:20;;;;;;;2.90;2.60;;;20.70;93.30;;;;;;4128418;28;20597;-76
2022/06/29 00:04:22;;;;;;;3.27;2.77;;;20.70;94.60;;;;;;4120674;28;20644;-75
2022/06/29 00:06:24;;;;;;;3.17;2.70;;;20.70;94.70;;;;;;4121584;28;20796;-75
2022/06/29 00:08:26;;;;;;;3.13;2.80;;;20.60;94.50;;;;;;4127863;28;20576;-74
2022/06/29 00:10:28;;;;;;;3.13;2.57;;;20.60;94.40;;;;;;4128026;28;20207;-75
2022/06/29 00:12:32;;;;;;;4.00;2.93;;;20.60;95.10;;;;;;4126753;28;20304;-75
2022/06/29 00:14:41;;;;;;;3.40;2.80;;;20.60;95.30;;;;;;4125780;28;20240;-75
2022/06/29 00:16:43;;;;;;;2.80;2.60;;;20.60;95.90;;;;;;4128796;28;20206;-76
2022/06/29 00:18:45;;;;;;;3.30;3.00;;;20.60;96.70;;;;;;4108367;28;20717;-77
2022/06/29 00:20:47;;;;;;;3.27;2.90;;;20.60;96.80;;;;;;4128418;28;20283;-75
2022/06/29 00:22:49;;;;;;;3.23;2.93;;;20.60;96.40;;;;;;4129455;28;20389;-74
2022/06/29 00:24:51;;;;;;;3.17;2.73;;;20.50;96.90;;;;;;4129203;28;20678;-76
2022/06/29 00:26:53;;;;;;;3.10;2.80;;;20.50;97.10;;;;;;4123911;28;20242;-75
2022/06/29 00:28:57;;;;;;;3.00;2.70;;;20.50;98.20;;;;;;4132436;28;20243;-74
2022/06/29 00:30:58;;;;;;;2.80;2.57;;;20.40;97.50;;;;;;4123132;28;20290;-74
2022/06/29 00:33:00;;;;;;;3.30;2.77;;;20.40;98.20;;;;;;4120552;28;20243;-74
2022/06/29 00:35:03;;;;;;;2.90;2.60;;;20.40;98.10;;;;;;4122371;28;20595;-74
2022/06/29 00:37:06;;;;;;;3.47;2.70;;;20.40;99.70;;;;;;4127430;28;20217;-74
2022/06/29 00:39:08;;;;;;;3.10;2.80;;;20.40;99.00;;;;;;4117900;28;20690;-74
2022/06/29 00:41:09;;;;;;;2.57;2.37;;;20.30;98.80;;;;;;4136237;28;20292;-75
2022/06/29 00:43:12;;;;;;;3.17;2.53;;;20.30;99.10;;;;;;4146923;28;20263;-77
2022/06/29 00:45:15;;;;;;;3.03;2.73;;;20.20;99.40;;;;;;4144532;28;20201;-76
2022/06/29 00:47:17;;;;;;;2.97;2.60;;;20.30;99.90;;;;;;4141673;28;20209;-79
2022/06/29 00:49:21;;;;;;;2.90;2.60;;;20.20;99.90;;;;;;4136603;28;20461;-77
2022/06/29 00:51:25;;;;;;;3.63;2.77;;;20.20;99.90;;;;;;4136573;28;20772;-77
2022/06/29 00:53:29;;;;;;;3.47;2.87;;;20.20;99.90;;;;;;4143748;28;20216;-79
2022/06/29 00:55:32;;;;;;;3.20;2.90;;;20.20;99.90;;;;;;4134529;28;20283;-75
2022/06/29 00:57:42;;;;;;;3.03;2.73;;;20.10;99.90;;;;;;4129911;28;20566;-77
2022/06/29 00:59:45;;;;;;;3.23;2.80;;;20.10;99.90;;;;;;4122884;28;20211;-74
2022/06/29 01:01:49;;;;;;;3.70;2.90;;;20.10;99.90;;;;;;4129128;28;20301;-74
2022/06/29 01:03:51;;;;;;;4.83;3.00;;;20.10;99.90;;;;;;4120644;28;20288;-75
2022/06/29 01:05:53;;;;;;;3.00;2.60;;;20.10;99.90;;;;;;4126008;28;20568;-75
2022/06/29 01:07:58;;;;;;;5.10;3.10;;;20.10;99.90;;;;;;4125340;28;20232;-75
2022/06/29 01:10:02;;;;;;;4.27;3.00;;;20.00;99.90;;;;;;4125361;28;20250;-75
2022/06/29 01:12:04;;;;;;;2.97;2.70;;;20.00;99.90;;;;;;4123788;28;20212;-76
2022/06/29 01:14:06;;;;;;;3.80;3.20;;;20.00;99.90;;;;;;4123995;28;20267;-74
2022/06/29 01:16:09;;;;;;;3.67;2.90;;;20.00;99.90;;;;;;4125813;28;20661;-76
2022/06/29 01:18:12;;;;;;;4.90;3.00;;;20.00;99.90;;;;;;4121912;28;20232;-75
2022/06/29 01:20:15;;;;;;;4.93;3.10;;;19.90;99.90;;;;;;4116656;28;20225;-75
2022/06/29 01:22:20;;;;;;;3.17;2.87;;;19.90;99.90;;;;;;4123897;28;20307;-75
2022/06/29 01:24:22;;;;;;;3.83;3.30;;;19.90;99.90;;;;;;4121366;28;20212;-75
2022/06/29 01:26:24;;;;;;;3.37;2.90;;;19.90;99.90;;;;;;4119001;28;20310;-75
2022/06/29 01:30:29;;;;;;;3.67;2.93;;;19.80;99.90;;;;;;4160622;28;20246;-73
2022/06/29 01:32:31;;;;;;;3.80;2.90;;;19.80;99.90;;;;;;4161816;28;20205;-73
2022/06/29 01:34:37;;;;;;;4.23;3.13;;;19.80;99.90;;;;;;4162028;28;20327;-75
2022/06/29 01:36:39;;;;;;;3.90;2.90;;;19.80;99.90;;;;;;4160686;28;20216;-74
2022/06/29 01:38:43;;;;;;;3.10;2.80;;;19.70;99.90;;;;;;4161874;28;20734;-75
2022/06/29 01:40:44;;;;;;;3.33;3.03;;;19.70;99.90;;;;;;4163159;28;20578;-75
2022/06/29 01:42:46;;;;;;;3.20;2.90;;;19.70;99.90;;;;;;4161822;28;20221;-75
2022/06/29 01:44:48;;;;;;;3.97;2.90;;;19.70;99.90;;;;;;4162091;28;20690;-75
2022/06/29 01:46:50;;;;;;;3.63;3.20;;;19.70;99.90;;;;;;4160616;28;20213;-75
2022/06/29 01:48:52;;;;;;;3.43;2.90;;;19.70;99.90;;;;;;4161198;28;20690;-76
2022/06/29 01:50:54;;;;;;;3.60;3.10;;;19.70;99.90;;;;;;4161939;28;20301;-74
2022/06/29 01:52:56;;;;;;;3.37;3.07;;;19.70;99.90;;;;;;4161619;28;20210;-74
2022/06/29 01:54:59;;;;;;;3.90;3.30;;;19.70;99.90;;;;;;4164277;28;20232;-75
2022/06/29 01:57:01;;;;;;;3.20;2.90;;;19.60;99.90;;;;;;4161416;28;20222;-76
2022/06/29 01:59:03;;;;;;;3.73;3.13;;;19.70;99.90;;;;;;4161888;28;20328;-75
2022/06/29 02:01:05;;;;;;;3.20;2.90;;;19.60;99.90;;;;;;4160401;28;20220;-74
2022/06/29 02:03:08;;;;;;;3.20;2.90;;;19.60;99.90;;;;;;4161762;28;20208;-75
2022/06/29 02:05:09;;;;;;;3.00;2.67;;;19.60;99.90;;;;;;4162237;28;20221;-75
2022/06/29 02:07:11;;;;;;;3.67;3.30;;;19.60;99.90;;;;;;4160734;28;20309;-75
2022/06/29 02:09:14;;;;;;;3.77;2.80;;;19.60;99.90;;;;;;4160880;28;20240;-75
2022/06/29 02:11:17;;;;;;;3.10;2.80;;;19.60;99.90;;;;;;4156961;28;20643;-76
2022/06/29 02:13:19;;;;;;;3.43;2.93;;;19.60;99.90;;;;;;4160347;28;20601;-74
2022/06/29 02:15:21;;;;;;;3.20;2.90;;;19.50;99.90;;;;;;4161856;28;20201;-74
2022/06/29 02:17:24;;;;;;;3.43;2.90;;;19.50;99.90;;;;;;4161626;28;20590;-74
2022/06/29 02:19:25;;;;;;;3.27;2.90;;;19.50;99.90;;;;;;4157680;28;20275;-75
2022/06/29 02:21:27;;;;;;;4.40;2.70;;;19.50;99.90;;;;;;4161906;28;20578;-75
2022/06/29 02:23:29;;;;;;;3.37;3.00;;;19.50;99.90;;;;;;4162042;28;20292;-74
2022/06/29 02:25:31;;;;;;;3.40;3.10;;;19.40;99.90;;;;;;4163280;28;20217;-75
2022/06/29 02:27:34;;;;;;;3.00;2.70;;;19.40;99.90;;;;;;4161043;28;20229;-75
2022/06/29 04:04:36;;;;;;;4.43;2.60;;;19.10;99.90;;;;;;4158982;28;20212;-75
2022/06/29 04:06:38;;;;;;;2.60;2.40;;;19.10;99.90;;;;;;4155681;28;20220;-74
2022/06/29 04:08:41;;;;;;;2.93;2.50;;;19.10;99.90;;;;;;4160926;28;20228;-75
2022/06/29 04:10:43;;;;;;;2.50;2.30;;;19.10;99.90;;;;;;4165114;28;20248;-76
2022/06/29 04:12:45;;;;;;;3.20;2.63;;;19.10;99.90;;;;;;4165393;28;20206;-75
2022/06/29 04:14:47;;;;;;;2.80;2.60;;;19.20;99.90;;;;;;4164035;28;20222;-74
2022/06/29 04:16:49;;;;;;;2.90;2.60;;;19.20;99.90;;;;;;4164181;28;20211;-74
2022/06/29 04:18:51;;;;;;;2.67;2.47;;;19.20;99.90;;;;;;4164941;28;20225;-75
2022/06/29 04:21:08;;;;;;;2.63;2.43;;;19.20;99.90;;;;;;4164791;28;20312;-74
2022/06/29 04:23:10;;;;;;;2.87;2.50;;;19.30;99.90;;;;;;4163764;28;20217;-75
2022/06/29 04:25:13;;;;;;;2.90;2.70;;;19.30;99.90;;;;;;4165011;28;20229;-74
2022/06/29 04:27:15;;;;;;;3.73;3.17;;;19.30;99.90;;;;;;4162984;28;20292;-75
2022/06/29 04:29:17;;;;;;;2.83;2.37;;;19.40;99.90;;;;;;4169952;28;20232;-75
2022/06/29 04:31:19;;;;;;;2.80;2.60;;;19.40;99.90;;;;;;4162125;28;20292;-74
2022/06/29 04:33:21;;;;;;;4.23;2.80;;;19.40;99.90;;;;;;4164996;28;20242;-75
2022/06/29 04:35:22;;;;;;;3.33;2.80;;;19.40;99.90;;;;;;4164480;28;20211;-75
2022/06/29 04:37:24;;;;;;;3.33;2.80;;;19.40;99.90;;;;;;4162201;28;20214;-75
2022/06/29 04:39:26;;;;;;;3.53;2.80;;;19.50;99.90;;;;;;4163547;28;20737;-75
2022/06/29 04:41:30;;;;;;;2.80;2.60;;;19.50;99.90;;;;;;4163736;28;20229;-75
2022/06/29 04:43:32;;;;;;;3.63;2.90;;;19.50;99.90;;;;;;4164264;28;20203;-74
2022/06/29 04:47:53;;;;;;;2.93;2.63;;;19.50;99.90;;;;;;4163733;28;20205;-74
2022/06/29 04:49:55;;;;;;;2.60;2.40;;;19.50;99.90;;;;;;4163410;28;20236;-74
2022/06/29 04:51:57;;;;;;;5.47;3.17;;;19.50;99.90;;;;;;4158285;28;20221;-76
2022/06/29 04:53:59;;;;;;;3.10;2.80;;;19.60;99.90;;;;;;4163669;28;20222;-76
2022/06/29 04:56:01;;;;;;;3.10;2.80;;;19.60;99.90;;;;;;4163343;28;20214;-76
2022/06/29 04:58:05;;;;;;;3.40;3.07;;;19.60;99.90;;;;;;4164151;28;20255;-76
2022/06/29 05:00:08;;;;;;;3.43;2.90;;;19.60;99.90;;;;;;4163416;28;20210;-77
2022/06/29 05:02:11;;;;;;;5.60;2.70;;;19.70;99.90;;;;;;4160165;28;20233;-76
2022/06/29 05:04:13;;;;;;;3.43;2.60;;;19.70;99.90;;;;;;4163845;28;20252;-76
2022/06/29 05:06:15;;;;;;;3.70;2.77;;;19.70;99.90;;;;;;4161835;28;20210;-76
2022/06/29 05:08:17;;;;;;;2.83;2.63;;;19.70;99.90;;;;;;4160698;28;20308;-76
2022/06/29 05:10:19;;;;;;;2.97;2.67;;;19.80;99.90;;;;;;4161691;28;20249;-76
2022/06/29 05:12:21;;;;;;;4.13;3.07;;;19.80;99.90;;;;;;4162874;28;20732;-76
2022/06/29 05:14:24;;;;;;;5.03;3.60;;;19.80;99.90;;;;;;4164540;28;20313;-76
2022/06/29 05:16:26;;;;;;;3.47;2.90;;;19.90;99.90;;;;;;4163754;28;20217;-76
2022/06/29 05:18:28;;;;;;;3.20;2.90;;;19.90;99.90;;;;;;4163709;28;20236;-76
2022/06/29 05:20:30;;;;;;;3.40;3.10;;;19.90;99.90;;;;;;4158507;28;20268;-76
2022/06/29 05:22:32;;;;;;;4.20;3.20;;;19.90;99.90;;;;;;4164581;28;20221;-76
2022/06/29 05:24:34;;;;;;;3.50;3.13;;;20.00;99.90;;;;;;4162996;28;20216;-76
2022/06/29 05:26:37;;;;;;;3.60;3.07;;;20.00;99.90;;;;;;4163005;28;20293;-77
2022/06/29 05:28:39;;;;;;;3.47;3.07;;;20.00;99.90;;;;;;4167463;28;20519;-80
2022/06/29 05:30:43;;;;;;;3.50;3.13;;;20.00;99.90;;;;;;4163931;28;20282;-80
2022/06/29 05:32:45;;;;;;;3.17;2.83;;;20.10;99.90;;;;;;4163486;28;20216;-80
2022/06/29 05:34:47;;;;;;;3.33;2.90;;;20.10;99.90;;;;;;4164833;28;20218;-82
2022/06/29 05:36:49;;;;;;;3.20;2.90;;;20.10;99.90;;;;;;4164280;28;20250;-81
2022/06/29 05:38:51;;;;;;;3.37;2.77;;;20.20;99.90;;;;;;4168511;28;20330;-82
2022/06/29 05:40:53;;;;;;;3.10;2.80;;;20.20;99.90;;;;;;4166236;28;20676;-82
2022/06/29 05:42:55;;;;;;;3.60;3.30;;;20.20;99.90;;;;;;4163336;28;20210;-82
2022/06/29 05:44:57;;;;;;;3.30;2.97;;;20.20;99.90;;;;;;4165941;28;20202;-81
2022/06/29 05:47:04;;;;;;;3.73;3.40;;;20.20;99.90;;;;;;4162252;28;20222;-81
2022/06/29 05:49:06;;;;;;;3.53;3.00;;;20.20;99.90;;;;;;4165495;28;20613;-84
2022/06/29 05:51:08;;;;;;;4.30;3.27;;;20.20;99.90;;;;;;4159869;28;20251;-82
2022/06/29 05:53:10;;;;;;;3.77;3.20;;;20.20;99.90;;;;;;4162989;28;20209;-85
2022/06/29 05:55:12;;;;;;;4.63;3.00;;;20.20;99.90;;;;;;4156447;28;20328;-82
2022/06/29 05:57:14;;;;;;;3.60;3.10;;;20.20;99.90;;;;;;4161076;28;20286;-82
2022/06/29 05:59:16;;;;;;;3.23;2.90;;;20.20;99.90;;;;;;4158841;28;20230;-82
2022/06/29 06:01:18;;;;;;;3.83;3.33;;;20.20;99.90;;;;;;4160643;28;20293;-84
2022/06/29 06:03:21;;;;;;;3.60;3.17;;;20.20;99.90;;;;;;4161600;28;20203;-82
2022/06/29 06:05:23;;;;;;;3.87;3.23;;;20.20;99.90;;;;;;4160748;28;20682;-82
2022/06/29 06:07:25;;;;;;;6.13;3.80;;;20.20;99.90;;;;;;4160762;28;20239;-83
2022/06/29 06:09:28;;;;;;;5.10;3.60;;;20.20;99.90;;;;;;4160595;28;20333;-85
2022/06/29 06:11:30;;;;;;;4.50;3.17;;;20.20;99.90;;;;;;4158478;28;20573;-83
2022/06/29 06:13:31;;;;;;;3.63;3.33;;;20.20;99.90;;;;;;4160977;28;20217;-84
2022/06/29 06:15:34;;;;;;;5.03;3.67;;;20.30;99.90;;;;;;4159850;28;20217;-84
2022/06/29 06:17:36;;;;;;;4.00;3.60;;;20.20;99.90;;;;;;4160073;28;20207;-82
2022/06/29 06:19:39;;;;;;;4.00;3.60;;;20.30;99.90;;;;;;4158769;28;20344;-81
2022/06/29 06:21:41;;;;;;;4.10;3.37;;;20.30;99.90;;;;;;4162960;28;20207;-81
2022/06/29 06:23:43;;;;;;;4.60;3.50;;;20.30;99.90;;;;;;4160624;28;20286;-81
2022/06/29 06:25:45;;;;;;;4.63;3.80;;;20.30;99.90;;;;;;4156488;28;20206;-81
2022/06/29 06:27:46;;;;;;;4.27;3.50;;;20.30;99.90;;;;;;4160457;28;20298;-82
2022/06/29 06:29:48;;;;;;;4.37;3.47;;;20.30;99.90;;;;;;4159211;28;20258;-82
2022/06/29 06:31:50;;;;;;;4.77;3.93;;;20.30;99.90;;;;;;4160439;28;20237;-83
2022/06/29 06:33:52;;;;;;;4.87;3.37;;;20.40;99.90;;;;;;4160503;28;20209;-82
2022/06/29 06:35:55;;;;;;;4.87;3.30;;;20.40;99.90;;;;;;4146860;28;20230;-83
2022/06/29 06:37:57;;;;;;;5.33;3.60;;;20.40;99.90;;;;;;4149952;28;20703;-81
2022/06/29 06:42:19;;;;;;;4.33;3.43;;;20.40;99.90;;;;;;4157553;28;20257;-81
2022/06/29 06:44:21;;;;;;;3.93;3.47;;;20.50;99.90;;;;;;4157273;28;20217;-79
2022/06/29 06:46:23;;;;;;;5.00;3.93;;;20.50;99.90;;;;;;4156638;28;20212;-79
2022/06/29 06:48:26;;;;;;;4.10;3.67;;;20.50;99.90;;;;;;4159445;28;20480;-81
2022/06/29 06:50:28;;;;;;;5.93;4.30;;;20.60;99.90;;;;;;4156885;28;20211;-80
2022/06/29 06:52:34;;;;;;;5.37;4.17;;;20.60;99.90;;;;;;4151706;28;20265;-79
2022/06/29 06:54:35;;;;;;;4.47;4.07;;;20.60;99.90;;;;;;4156817;28;20215;-82
2022/06/29 06:56:37;;;;;;;5.03;4.40;;;20.70;99.90;;;;;;4157520;28;20309;-83
2022/06/29 06:58:40;;;;;;;5.40;4.30;;;20.90;99.90;;;;;;4158371;28;20293;-79
2022/06/29 07:00:41;;;;;;;7.83;4.50;;;20.80;99.90;;;;;;4158270;28;20210;-82
2022/06/29 07:02:49;;;;;;;5.10;4.40;;;20.80;99.90;;;;;;4159550;28;20669;-79
2022/06/29 07:04:51;;;;;;;5.70;4.50;;;20.80;99.90;;;;;;4159910;28;20269;-80
2022/06/29 07:06:53;;;;;;;5.70;4.70;;;20.90;99.90;;;;;;4163236;28;20671;-81
2022/06/29 07:08:56;;;;;;;4.97;4.43;;;20.90;99.90;;;;;;4159770;28;20230;-80
2022/06/29 07:10:58;;;;;;;5.73;4.17;;;21.00;99.90;;;;;;4158800;28;20555;-82
2022/06/29 07:12:59;;;;;;;6.30;4.73;;;21.00;99.90;;;;;;4159652;28;20213;-80
2022/06/29 07:15:01;;;;;;;5.07;4.30;;;21.10;99.90;;;;;;4159273;28;20226;-81
2022/06/29 07:17:04;;;;;;;7.57;4.53;;;21.10;99.90;;;;;;4158923;28;20211;-81
2022/06/29 07:19:05;;;;;;;5.13;4.63;;;21.10;99.90;;;;;;4159853;28;20711;-80
2022/06/29 07:21:07;;;;;;;5.77;4.47;;;21.10;99.90;;;;;;4159709;28;20241;-80
2022/06/29 07:23:09;;;;;;;6.20;4.60;;;21.10;99.90;;;;;;4158716;28;20718;-81
2022/06/29 07:25:13;;;;;;;4.90;4.10;;;21.20;99.90;;;;;;4160128;28;20695;-80
2022/06/29 07:27:15;;;;;;;5.90;4.60;;;21.20;99.90;;;;;;4157366;28;20227;-79
2022/06/29 07:31:20;;;;;;;5.70;4.67;;;21.20;99.90;;;;;;4157225;28;20342;-76
2022/06/29 07:33:22;;;;;;;5.83;4.20;;;21.30;99.90;;;;;;4158272;28;20631;-76
2022/06/29 07:35:24;;;;;;;5.87;4.77;;;21.30;99.90;;;;;;4157417;28;21375;-76
2022/06/29 07:37:28;;;;;;;4.40;3.77;;;21.30;99.90;;;;;;4158821;28;20209;-76
2022/06/29 07:39:30;;;;;;;4.33;3.93;;;21.30;99.90;;;;;;4157126;28;20321;-76
2022/06/29 07:41:33;;;;;;;4.93;4.07;;;21.30;99.90;;;;;;4157308;28;20208;-76
2022/06/29 07:43:35;;;;;;;4.93;4.20;;;21.30;99.90;;;;;;4151420;28;20724;-76
2022/06/29 07:45:37;;;;;;;5.10;4.13;;;21.40;99.90;;;;;;4151608;28;20235;-76
2022/06/29 07:47:40;;;;;;;5.60;4.10;;;21.40;99.90;;;;;;4158087;28;20218;-76
2022/06/29 07:49:42;;;;;;;4.20;3.80;;;21.40;99.90;;;;;;4153149;28;20228;-76
2022/06/29 07:51:44;;;;;;;5.43;4.40;;;21.40;99.90;;;;;;4154011;28;20633;-76
2022/06/29 07:53:46;;;;;;;5.93;3.93;;;21.40;99.90;;;;;;4158292;28;20288;-76
2022/06/29 07:55:48;;;;;;;4.40;3.93;;;21.50;99.90;;;;;;4166338;28;20251;-76
2022/06/29 07:57:51;;;;;;;4.93;4.00;;;21.50;99.90;;;;;;4157957;28;20219;-76
2022/06/29 07:59:53;;;;;;;4.63;3.83;;;21.60;99.90;;;;;;4154962;28;20221;-76
2022/06/29 08:01:55;;;;;;;4.00;3.60;;;21.70;99.90;;;;;;4160136;28;20303;-76
2022/06/29 08:03:57;;;;;;;4.83;3.70;;;21.70;99.90;;;;;;4156396;28;20292;-76
2022/06/29 08:05:59;;;;;;;6.97;3.83;;;21.80;99.90;;;;;;4160884;28;20697;-75
2022/06/29 08:08:01;;;;;;;5.47;3.70;;;21.80;99.90;;;;;;4160105;28;20214;-76
2022/06/29 08:10:08;;;;;;;5.77;3.63;;;21.90;99.90;;;;;;4155699;28;20231;-76
2022/06/29 08:12:10;;;;;;;3.93;3.50;;;21.90;99.90;;;;;;4155484;28;20225;-76
2022/06/29 08:14:14;;;;;;;5.07;3.30;;;21.90;99.90;;;;;;4155352;28;20217;-75
2022/06/29 08:16:16;;;;;;;4.23;3.47;;;21.90;99.90;;;;;;4151416;28;20233;-76
2022/06/29 08:18:18;;;;;;;4.97;3.43;;;21.90;99.90;;;;;;4165819;28;20252;-75
2022/06/29 08:20:20;;;;;;;4.83;3.70;;;21.90;99.90;;;;;;4152381;28;20644;-75
2022/06/29 08:22:22;;;;;;;4.47;3.23;;;22.00;99.90;;;;;;4155296;28;20300;-75
2022/06/29 08:24:27;;;;;;;4.23;3.40;;;21.90;99.90;;;;;;4157126;28;20681;-75
2022/06/29 08:26:29;;;;;;;3.30;3.00;;;22.00;99.90;;;;;;4153998;28;20277;-75
2022/06/29 08:28:31;;;;;;;3.50;3.20;;;22.00;99.90;;;;;;4157902;28;20283;-76
2022/06/29 08:30:35;;;;;;;3.43;3.13;;;22.00;99.90;;;;;;4159126;28;20220;-75
2022/06/29 08:32:39;;;;;;;3.80;3.40;;;22.00;99.90;;;;;;4151779;28;20704;-76
2022/06/29 08:34:41;;;;;;;5.37;3.40;;;22.00;99.90;;;;;;4157273;28;20319;-76
2022/06/29 08:36:43;;;;;;;3.13;2.83;;;22.00;99.90;;;;;;4159010;28;20237;-76
2022/06/29 08:38:45;;;;;;;3.57;3.10;;;22.00;99.90;;;;;;4160452;28;20300;-76
2022/06/29 08:40:49;;;;;;;3.30;2.80;;;22.00;99.90;;;;;;4173635;28;20295;-76
2022/06/29 08:42:53;;;;;;;2.90;2.63;;;21.90;99.90;;;;;;4171856;28;20210;-76
2022/06/29 08:44:56;;;;;;;3.13;2.83;;;21.90;99.90;;;;;;4156805;28;20216;-76
2022/06/29 08:47:00;;;;;;;3.90;2.93;;;21.90;99.90;;;;;;4156693;28;20242;-76
2022/06/29 08:49:03;;;;;;;3.90;3.10;;;21.80;99.90;;;;;;4167613;28;20650;-76
2022/06/29 08:51:06;;;;;;;3.27;2.80;;;21.80;99.90;;;;;;4151516;28;20216;-76
2022/06/29 08:53:12;;;;;;;3.33;2.80;;;21.80;99.90;;;;;;4150532;28;20645;-76
2022/06/29 08:55:15;;;;;;;3.03;2.73;;;21.70;99.90;;;;;;4153183;28;20299;-76
2022/06/29 08:57:18;;;;;;;3.40;3.10;;;21.70;99.90;;;;;;4157000;28;20298;-76
2022/06/29 08:59:22;;;;;;;4.43;2.80;;;21.70;99.90;;;;;;4158521;28;20619;-76
2022/06/29 09:01:24;;;;;;;3.20;2.90;;;21.70;99.90;;;;;;4158837;28;20245;-76
2022/06/29 09:03:27;;;;;;;4.77;3.10;;;21.70;99.90;;;;;;4153734;28;20220;-76
2022/06/29 09:05:32;;;;;;;5.17;3.07;;;21.60;99.90;;;;;;4154707;28;20657;-76
2022/06/29 09:07:34;;;;;;;3.73;3.30;;;21.70;99.90;;;;;;4155324;28;20294;-76
2022/06/29 09:10:00;;;;;;;3.47;3.03;;;21.70;99.90;;;;;;4158178;28;20289;-76
2022/06/29 09:12:03;;;;;;;4.00;3.00;;;21.80;99.90;;;;;;4154599;28;20741;-76
2022/06/29 09:14:10;;;;;;;3.87;2.97;;;21.80;99.90;;;;;;4168744;28;20720;-75
2022/06/29 09:16:12;;;;;;;4.43;3.00;;;21.90;99.90;;;;;;4156228;28;20319;-75
2022/06/29 09:18:26;;;;;;;3.10;2.80;;;22.00;99.90;;;;;;4156054;28;20209;-75
2022/06/29 09:20:42;;;;;;;6.23;2.93;;;22.00;99.90;;;;;;4164414;28;20319;-75
2022/06/29 09:22:52;;;;;;;4.03;3.10;;;22.10;99.90;;;;;;4156992;28;20708;-75
2022/06/29 09:24:54;;;;;;;3.20;2.90;;;22.10;99.90;;;;;;4156051;28;20891;-75
2022/06/29 09:26:58;;;;;;;4.17;2.50;;;22.30;99.90;;;;;;4160178;28;20293;-75
2022/06/29 09:29:00;;;;;;;3.50;2.80;;;22.20;99.90;;;;;;4158010;28;20238;-75
2022/06/29 09:31:02;;;;;;;3.03;2.73;;;22.30;99.90;;;;;;4158883;28;20309;-77
2022/06/29 09:33:06;;;;;;;3.20;2.70;;;22.30;99.90;;;;;;4159564;28;20284;-77
2022/06/29 09:35:13;;;;;;;3.70;2.70;;;22.30;99.90;;;;;;4157084;28;20749;-77
2022/06/29 09:37:18;;;;;;;5.43;2.73;;;22.30;99.90;;;;;;4157764;28;20201;-77
2022/06/29 09:39:33;;;;;;;2.40;2.10;;;22.30;99.90;;;;;;4157933;28;20737;-77
2022/06/29 09:41:35;;;;;;;2.40;2.20;;;22.30;99.90;;;;;;4159127;28;20690;-77
2022/06/29 09:43:39;;;;;;;2.47;2.27;;;22.30;99.90;;;;;;4157659;28;20205;-77
2022/06/29 09:45:43;;;;;;;3.47;2.20;;;22.30;99.90;;;;;;4150318;28;20221;-76
2022/06/29 09:47:45;;;;;;;2.97;2.67;;;22.30;99.90;;;;;;4156756;28;20208;-77
2022/06/29 09:49:52;;;;;;;2.70;2.03;;;22.20;99.90;;;;;;4157010;28;20844;-77
2022/06/29 09:51:56;;;;;;;2.57;2.37;;;22.30;99.90;;;;;;4158190;28;20256;-77
2022/06/29 09:54:05;;;;;;;2.30;2.10;;;22.20;99.90;;;;;;4158262;28;20236;-77
2022/06/29 09:56:13;;;;;;;2.40;2.20;;;22.30;99.90;;;;;;4158646;28;20641;-77
2022/06/29 09:58:19;;;;;;;2.13;1.90;;;22.40;99.90;;;;;;4158464;28;20202;-76
2022/06/29 10:02:44;;;;;;;2.67;2.23;;;22.50;99.90;;;;;;4155161;28;20718;-75
2022/06/29 10:04:46;;;;;;;4.33;2.40;;;22.50;99.90;;;;;;4153067;28;20238;-75
2022/06/29 10:06:50;;;;;;;2.67;2.33;;;22.60;99.90;;;;;;4153139;28;20245;-74
2022/06/29 10:08:52;;;;;;;3.07;2.60;;;22.70;99.90;;;;;;4153742;28;20215;-74
2022/06/29 10:13:39;;;;;;;2.87;2.23;;;22.80;99.90;;;;;;4150307;28;20654;-75
2022/06/29 10:13:42;;;;;;;3.03;2.60;;;22.80;99.90;;;;;;4151018;28;20594;-75
2022/06/29 10:15:55;;;;;;;2.43;2.10;;;22.90;99.90;;;;;;4155224;28;20227;-75
2022/06/29 10:18:06;;;;;;;2.43;2.23;;;23.00;99.90;;;;;;4151554;28;20688;-76
2022/06/29 10:20:19;;;;;;;2.80;2.30;;;23.10;99.90;;;;;;4154918;28;20506;-76
2022/06/29 10:22:21;;;;;;;2.87;2.13;;;23.20;99.90;;;;;;4152616;28;20293;-76
2022/06/29 10:24:23;;;;;;;3.20;2.10;;;23.30;99.90;;;;;;4153855;28;20206;-77
2022/06/29 10:26:45;;;;;;;2.70;2.17;;;23.30;99.90;;;;;;4150492;28;20279;-77
2022/06/29 10:28:47;;;;;;;3.13;2.20;;;23.40;99.90;;;;;;4152766;28;20301;-77
2022/06/29 10:30:58;;;;;;;3.37;2.17;;;23.50;99.90;;;;;;4158077;28;20226;-75
2022/06/29 10:33:32;;;;;;;2.63;2.33;;;23.50;99.90;;;;;;4152172;28;20265;-75
2022/06/29 10:35:57;;;;;;;3.50;2.47;;;23.60;99.90;;;;;;4154829;28;20254;-77
2022/06/29 10:37:59;;;;;;;4.23;2.27;;;23.60;99.90;;;;;;4147684;28;20281;-76
2022/06/29 10:40:05;;;;;;;3.73;2.60;;;23.70;99.90;;;;;;4151009;28;20337;-75
2022/06/29 10:44:56;;;;;;;4.10;2.50;;;23.80;99.90;;;;;;4146842;28;20583;-75
2022/06/29 10:46:58;;;;;;;2.97;2.47;;;23.90;99.90;;;;;;4154310;28;20289;-75
2022/06/29 10:49:20;;;;;;;2.90;2.50;;;24.00;99.90;;;;;;4167775;28;20234;-75
2022/06/29 10:51:22;;;;;;;3.77;2.23;;;24.20;99.90;;;;;;4155034;28;20203;-75
2022/06/29 10:53:25;;;;;;;2.90;2.47;;;24.30;99.90;;;;;;4154555;28;20307;-75
2022/06/29 10:55:29;;;;;;;5.30;2.60;;;24.50;99.90;;;;;;4153913;28;20289;-75
2022/06/29 10:57:34;;;;;;;2.93;2.57;;;24.60;99.90;;;;;;4155204;28;20231;-75
2022/06/29 10:59:38;;;;;;;4.57;3.10;;;24.80;99.90;;;;;;4152973;28;20322;-75
2022/06/29 11:01:40;;;;;;;4.93;3.03;;;25.00;99.30;;;;;;4154629;28;20219;-75
2022/06/29 11:03:42;;;;;;;4.17;3.20;;;25.10;98.30;;;;;;4152357;28;20760;-75
2022/06/29 11:12:49;;;;;;;3.50;2.90;;;25.60;96.30;;;;;;4157998;28;20199;-75
2022/06/29 11:17:39;;;;;;;5.57;3.20;;;26.00;95.00;;;;;;4157852;28;20234;-75
2022/06/29 11:19:36;;;;;;;3.30;3.00;;;26.20;93.90;;;;;;4158485;28;20223;-75
2022/06/29 11:21:37;;;;;;;3.27;2.73;;;26.30;93.60;;;;;;4168019;28;20725;-75
2022/06/29 11:23:39;;;;;;;4.73;3.30;;;26.50;92.90;;;;;;4160036;28;20213;-75
2022/06/29 11:25:44;;;;;;;3.90;3.50;;;26.70;92.30;;;;;;4157151;28;20258;-75
2022/06/29 11:27:46;;;;;;;3.27;2.97;;;26.90;90.40;;;;;;4160081;28;20298;-76
2022/06/29 11:29:51;;;;;;;3.93;3.53;;;27.10;89.30;;;;;;4155735;28;21108;-76
2022/06/29 11:32:01;;;;;;;4.57;3.77;;;27.20;88.70;;;;;;4159843;28;20210;-76
2022/06/29 11:34:03;;;;;;;4.70;3.43;;;27.40;86.70;;;;;;4156301;28;20691;-76
2022/06/29 11:36:06;;;;;;;3.60;3.30;;;27.50;83.90;;;;;;4158373;28;20215;-76
2022/06/29 11:38:08;;;;;;;3.78;3.38;;;27.70;82.40;;;;;;4160553;28;20211;-76
2022/06/29 11:40:11;;;;;;;3.80;3.38;;;27.90;80.50;;;;;;4170778;28;20706;-75
2022/06/29 11:44:42;;;;;;;4.30;3.80;;;28.30;73.80;;;;;;4171333;28;20198;-76
2022/06/29 11:46:47;;;;;;;4.93;4.38;;;28.40;70.50;;;;;;4158162;28;20307;-76
2022/06/29 11:51:14;;;;;;;5.55;3.85;;;28.40;69.10;;;;;;4158461;28;20206;-76
2022/06/29 11:53:37;;;;;;;5.22;4.38;;;28.40;68.50;;;;;;4158583;28;20281;-76
2022/06/29 11:55:41;;;;;;;5.03;3.78;;;28.50;68.00;;;;;;4157635;28;20203;-76
2022/06/29 11:57:43;;;;;;;4.40;3.80;;;28.50;67.10;;;;;;4156923;28;20211;-76
2022/06/29 11:59:47;;;;;;;7.43;4.57;;;28.60;67.50;;;;;;4158545;28;20314;-76
2022/06/29 12:01:54;;;;;;;8.40;4.53;;;28.70;67.10;;;;;;4156955;28;20241;-76
2022/06/29 12:03:57;;;;;;;6.82;4.65;;;28.70;66.80;;;;;;4161248;28;20221;-76
2022/06/29 12:06:02;;;;;;;5.40;4.30;;;28.70;67.50;;;;;;4159363;28;20242;-76
2022/06/29 12:08:04;;;;;;;5.43;4.53;;;28.70;67.10;;;;;;4158437;28;20290;-77
2022/06/29 12:10:06;;;;;;;6.80;4.50;;;28.60;66.50;;;;;;4157490;28;20743;-77
2022/06/29 12:12:10;;;;;;;4.90;4.20;;;28.70;66.50;;;;;;4153960;28;20212;-76
2022/06/29 12:14:12;;;;;;;5.43;4.63;;;28.70;66.30;;;;;;4157562;28;20213;-77
2022/06/29 12:16:14;;;;;;;5.30;4.50;;;28.70;65.90;;;;;;4153290;28;20298;-77
2022/06/29 12:18:18;;;;;;;6.43;4.38;;;28.70;65.90;;;;;;4149538;28;20213;-77
2022/06/29 12:20:20;;;;;;;5.28;4.57;;;28.60;66.60;;;;;;4165004;28;20539;-77
2022/06/29 12:22:22;;;;;;;5.85;4.70;;;28.60;66.00;;;;;;4149286;28;20221;-77
2022/06/29 12:24:24;;;;;;;7.72;4.53;;;28.50;66.20;;;;;;4154396;28;21017;-77
2022/06/29 12:26:26;;;;;;;6.28;4.75;;;28.50;67.00;;;;;;4154649;28;20200;-78
2022/06/29 12:28:28;;;;;;;5.35;4.85;;;28.50;67.70;;;;;;4159281;28;20217;-77
2022/06/29 12:30:30;;;;;;;5.93;4.72;;;28.40;68.50;;;;;;4158850;28;20242;-77
2022/06/29 12:32:32;;;;;;;6.68;5.03;;;28.40;68.50;;;;;;4160410;28;20207;-77
2022/06/29 12:34:35;;;;;;;5.97;4.75;;;28.30;69.10;;;;;;4160579;28;20215;-77
2022/06/29 12:36:37;;;;;;;5.40;4.80;;;28.30;69.80;;;;;;4159288;28;20700;-77
2022/06/29 12:38:39;;;;;;;6.57;4.80;;;28.20;70.60;;;;;;4160313;28;20664;-77
2022/06/29 12:40:41;;;;;;;5.97;4.93;;;28.10;71.80;;;;;;4159287;28;20207;-76
2022/06/29 12:42:43;;;;;;;4.93;4.43;;;28.00;72.90;;;;;;4159392;28;20663;-76
2022/06/29 12:44:45;;;;;;;5.83;5.00;;;28.00;74.60;;;;;;4159074;28;20868;-76
2022/06/29 12:46:47;;;;;;;5.30;4.80;;;27.90;74.60;;;;;;4158756;28;20672;-76